Time;durP1;ratioP1;P1;durP2;ratioP2;P2;SDS_P1;SDS_P2;PMS_P1;PMS_P2;Temp;Humidity;BMP_temperature;BMP_pressure;BME280_temperature;BME280_humidity;BME280_pressure;Samples;Min_cycle;Max_cycle;Signal;HPM_P1;HPM_P2
2021/05/21 00:00:45;;;;;;;14.50;13.80;;;13.80;99.90;;;;;;5056294;28;20460;-73
2021/05/21 00:03:11;;;;;;;14.87;14.07;;;13.80;99.90;;;;;;5053330;28;20464;-73
2021/05/21 00:05:38;;;;;;;14.10;13.50;;;13.80;99.90;;;;;;5059355;28;20581;-73
2021/05/21 00:08:05;;;;;;;15.40;14.33;;;13.80;99.90;;;;;;5054976;28;20498;-74
2021/05/21 00:10:31;;;;;;;15.13;14.20;;;13.80;99.90;;;;;;5055562;28;20499;-75
2021/05/21 00:12:58;;;;;;;14.77;14.07;;;13.80;99.90;;;;;;5056693;28;20473;-74
2021/05/21 00:15:24;;;;;;;15.23;14.30;;;13.80;99.90;;;;;;5057166;28;20463;-74
2021/05/21 00:17:51;;;;;;;15.47;14.60;;;13.80;99.90;;;;;;5052101;28;20509;-73
2021/05/21 00:20:18;;;;;;;15.30;14.60;;;13.80;99.90;;;;;;5053377;28;20455;-75
2021/05/21 00:22:45;;;;;;;15.57;14.67;;;13.80;99.90;;;;;;5057698;28;20494;-74
2021/05/21 00:25:12;;;;;;;15.60;14.47;;;13.80;99.90;;;;;;5053261;28;20552;-73
2021/05/21 00:27:38;;;;;;;14.27;13.47;;;13.70;99.90;;;;;;5062210;28;20866;-74
2021/05/21 00:30:06;;;;;;;15.23;14.53;;;13.70;99.90;;;;;;5060875;28;20462;-76
2021/05/21 00:32:33;;;;;;;14.80;14.10;;;13.70;99.90;;;;;;5055879;28;20545;-73
2021/05/21 00:34:59;;;;;;;14.60;13.90;;;13.60;99.90;;;;;;5051856;28;20456;-73
2021/05/21 00:37:25;;;;;;;14.17;13.57;;;13.70;99.90;;;;;;5060148;28;20472;-75
2021/05/21 00:39:52;;;;;;;14.37;13.70;;;13.70;99.90;;;;;;5053830;28;20514;-72
2021/05/21 00:42:19;;;;;;;14.53;13.83;;;13.70;99.90;;;;;;5058271;28;20467;-73
2021/05/21 00:44:53;;;;;;;15.00;14.30;;;13.70;99.90;;;;;;5052468;28;20460;-73
2021/05/21 00:47:19;;;;;;;14.93;14.00;;;13.60;99.90;;;;;;5056417;28;20490;-76
2021/05/21 00:49:46;;;;;;;14.57;13.80;;;13.60;99.90;;;;;;5057394;28;20483;-75
2021/05/21 00:52:14;;;;;;;14.63;13.73;;;13.60;99.90;;;;;;5057082;28;20467;-74
2021/05/21 00:54:41;;;;;;;14.53;13.83;;;13.50;99.90;;;;;;5056797;28;20470;-73
2021/05/21 00:57:09;;;;;;;14.20;13.60;;;13.50;99.90;;;;;;5055795;28;20471;-73
2021/05/21 00:59:36;;;;;;;14.53;13.80;;;13.50;99.90;;;;;;5053743;28;20977;-74
2021/05/21 01:02:03;;;;;;;14.40;13.70;;;13.50;99.90;;;;;;5053390;28;20459;-75
2021/05/21 01:04:29;;;;;;;15.47;14.57;;;13.50;99.90;;;;;;5058777;28;20529;-74
2021/05/21 01:06:55;;;;;;;14.73;13.93;;;13.50;99.90;;;;;;5057741;28;20512;-74
2021/05/21 01:09:22;;;;;;;15.70;14.53;;;13.40;99.90;;;;;;5057661;28;20859;-73
2021/05/21 01:11:48;;;;;;;14.50;13.80;;;13.40;99.90;;;;;;5054008;28;20722;-73
2021/05/21 01:14:15;;;;;;;14.27;13.57;;;13.40;99.90;;;;;;5053063;28;20980;-74
2021/05/21 01:16:42;;;;;;;14.97;14.00;;;13.40;99.90;;;;;;5051009;28;20558;-74
2021/05/21 01:19:08;;;;;;;14.13;13.53;;;13.40;99.90;;;;;;5048942;28;20468;-77
2021/05/21 01:21:36;;;;;;;14.00;13.40;;;13.50;99.90;;;;;;5057167;28;20984;-76
2021/05/21 01:24:03;;;;;;;14.83;13.73;;;13.40;99.90;;;;;;5057735;28;20989;-73
2021/05/21 01:26:30;;;;;;;15.33;14.43;;;13.50;99.90;;;;;;5050120;28;20468;-73
2021/05/21 01:28:57;;;;;;;14.50;13.80;;;13.50;99.90;;;;;;5054481;28;20559;-74
2021/05/21 01:31:24;;;;;;;14.90;14.20;;;13.40;99.90;;;;;;5048340;28;20470;-74
2021/05/21 01:33:50;;;;;;;14.03;13.33;;;13.40;99.90;;;;;;5057936;28;21009;-74
2021/05/21 01:36:17;;;;;;;14.33;13.63;;;13.40;99.90;;;;;;5057333;28;20467;-75
2021/05/21 01:38:57;;;;;;;14.43;13.73;;;13.40;99.90;;;;;;5056806;28;20799;-73
2021/05/21 01:41:25;;;;;;;14.57;13.87;;;13.40;99.90;;;;;;5050162;28;20571;-74
2021/05/21 01:43:52;;;;;;;14.67;13.77;;;13.30;99.90;;;;;;5049651;28;20460;-73
2021/05/21 01:46:20;;;;;;;13.90;13.30;;;13.30;99.90;;;;;;5054105;28;20457;-75
2021/05/21 01:48:47;;;;;;;14.40;13.60;;;13.30;99.90;;;;;;5057543;28;20490;-77
2021/05/21 01:51:13;;;;;;;17.07;14.27;;;13.30;99.90;;;;;;5049744;28;20982;-72
2021/05/21 01:53:39;;;;;;;14.20;13.60;;;13.30;99.90;;;;;;5058527;28;20463;-75
2021/05/21 01:56:07;;;;;;;14.50;13.47;;;13.30;99.90;;;;;;5056346;28;20491;-74
2021/05/21 01:58:34;;;;;;;14.27;13.27;;;13.30;99.90;;;;;;5051750;28;20519;-75
2021/05/21 02:01:00;;;;;;;14.60;13.50;;;13.20;99.90;;;;;;5054355;28;20485;-75
2021/05/21 02:03:28;;;;;;;14.77;13.77;;;13.20;99.90;;;;;;5051394;28;20458;-73
2021/05/21 02:05:55;;;;;;;15.13;13.50;;;13.10;99.90;;;;;;5045899;28;20915;-74
2021/05/21 02:08:23;;;;;;;13.63;12.93;;;13.10;99.90;;;;;;5055463;28;20490;-73
2021/05/21 02:10:49;;;;;;;14.10;13.30;;;13.00;99.90;;;;;;5052756;28;20867;-73
2021/05/21 02:13:17;;;;;;;15.13;14.13;;;12.90;99.90;;;;;;5054819;28;20463;-74
2021/05/21 02:15:43;;;;;;;14.30;13.60;;;12.90;99.90;;;;;;5057333;28;20462;-75
2021/05/21 02:18:10;;;;;;;14.37;13.57;;;12.80;99.90;;;;;;5055709;28;20561;-73
2021/05/21 02:20:36;;;;;;;14.67;13.77;;;12.80;99.90;;;;;;5053683;28;20547;-77
2021/05/21 02:23:04;;;;;;;14.27;13.40;;;12.70;99.90;;;;;;5057134;28;20948;-74
2021/05/21 02:25:31;;;;;;;14.40;13.60;;;12.70;99.90;;;;;;5057826;28;21026;-75
2021/05/21 02:27:57;;;;;;;13.97;13.27;;;12.70;99.90;;;;;;5058768;28;20478;-74
2021/05/21 02:30:25;;;;;;;14.87;13.53;;;12.70;99.90;;;;;;5054890;28;20471;-73
2021/05/21 02:32:51;;;;;;;13.60;13.00;;;12.60;99.90;;;;;;5059458;28;20462;-74
2021/05/21 02:35:18;;;;;;;14.33;13.63;;;12.60;99.90;;;;;;5059273;28;21019;-73
2021/05/21 02:37:44;;;;;;;14.10;13.40;;;12.60;99.90;;;;;;5060032;28;20747;-74
2021/05/21 02:40:11;;;;;;;14.20;13.30;;;12.50;99.90;;;;;;5060877;28;20499;-76
2021/05/21 02:42:38;;;;;;;14.50;13.70;;;12.50;99.90;;;;;;5058444;28;20547;-73
2021/05/21 02:45:06;;;;;;;13.30;12.67;;;12.50;99.90;;;;;;5057249;28;20462;-74
2021/05/21 02:47:33;;;;;;;14.23;13.30;;;12.50;99.90;;;;;;5055401;28;20475;-75
2021/05/21 02:50:00;;;;;;;14.30;13.50;;;12.40;99.90;;;;;;5057032;28;20487;-74
2021/05/21 02:52:27;;;;;;;14.03;13.20;;;12.40;99.90;;;;;;5062207;28;20459;-75
2021/05/21 02:54:53;;;;;;;14.30;13.37;;;12.40;99.90;;;;;;5055609;28;20470;-73
2021/05/21 02:57:23;;;;;;;13.80;13.10;;;12.40;99.90;;;;;;5054098;28;20463;-73
2021/05/21 02:59:50;;;;;;;13.47;12.87;;;12.40;99.90;;;;;;5054881;28;20984;-76
2021/05/21 03:02:17;;;;;;;13.57;12.67;;;12.40;99.90;;;;;;5060450;28;21039;-74
2021/05/21 03:04:44;;;;;;;13.03;12.33;;;12.40;99.90;;;;;;5064628;28;21119;-75
2021/05/21 03:07:11;;;;;;;14.10;13.30;;;12.40;99.90;;;;;;5054310;28;20454;-77
2021/05/21 03:09:37;;;;;;;13.37;12.57;;;12.40;99.90;;;;;;5056940;28;20463;-74
2021/05/21 03:12:04;;;;;;;13.20;12.60;;;12.30;99.90;;;;;;5056454;28;20581;-74
2021/05/21 03:14:30;;;;;;;14.70;13.33;;;12.30;99.90;;;;;;5057841;28;20463;-72
2021/05/21 03:16:56;;;;;;;14.33;13.33;;;12.30;99.90;;;;;;5060247;28;20890;-75
2021/05/21 03:19:23;;;;;;;13.30;12.63;;;12.30;99.90;;;;;;5062533;28;20467;-75
2021/05/21 03:21:50;;;;;;;13.63;12.93;;;12.20;99.90;;;;;;5053111;28;20463;-74
2021/05/21 03:24:16;;;;;;;13.80;13.10;;;12.20;99.90;;;;;;5056853;28;20467;-75
2021/05/21 03:26:43;;;;;;;13.53;12.90;;;12.20;99.90;;;;;;5053179;28;20472;-73
2021/05/21 03:29:09;;;;;;;13.60;12.33;;;12.20;99.90;;;;;;5058119;28;20502;-75
2021/05/21 03:31:35;;;;;;;13.60;12.80;;;12.20;99.90;;;;;;5057172;28;20694;-73
2021/05/21 03:34:02;;;;;;;14.30;13.40;;;12.20;99.90;;;;;;5059813;28;20458;-75
2021/05/21 03:36:29;;;;;;;14.00;13.30;;;12.10;99.90;;;;;;5056301;28;20478;-73
2021/05/21 03:38:56;;;;;;;13.60;12.87;;;12.10;99.90;;;;;;5056552;28;20475;-74
2021/05/21 03:41:22;;;;;;;13.37;12.60;;;12.10;99.90;;;;;;5054124;28;20488;-73
2021/05/21 03:43:50;;;;;;;13.97;13.03;;;12.10;99.90;;;;;;5056520;28;21079;-73
2021/05/21 03:46:16;;;;;;;14.20;12.97;;;12.10;99.90;;;;;;5060091;28;20463;-75
2021/05/21 03:48:43;;;;;;;13.37;12.67;;;12.10;99.90;;;;;;5056923;28;20492;-77
2021/05/21 03:51:09;;;;;;;14.07;13.20;;;12.10;99.90;;;;;;5055739;28;20482;-73
2021/05/21 03:53:36;;;;;;;13.47;12.70;;;12.10;99.90;;;;;;5054723;28;20456;-75
2021/05/21 03:56:04;;;;;;;13.27;12.50;;;12.10;99.90;;;;;;5057258;28;20463;-73
2021/05/21 03:58:33;;;;;;;12.80;12.00;;;12.00;99.90;;;;;;5059159;28;20546;-75
2021/05/21 04:01:00;;;;;;;13.20;12.17;;;12.00;99.90;;;;;;5058736;28;20528;-74
2021/05/21 04:03:26;;;;;;;13.50;12.90;;;12.00;99.90;;;;;;5058814;28;20513;-73
2021/05/21 04:05:53;;;;;;;12.87;12.27;;;12.00;99.90;;;;;;5063292;28;20887;-74
2021/05/21 04:08:19;;;;;;;13.77;13.17;;;12.00;99.90;;;;;;5060654;28;20487;-73
2021/05/21 04:10:45;;;;;;;13.67;12.97;;;12.00;99.90;;;;;;5053616;28;20471;-73
2021/05/21 04:13:13;;;;;;;13.10;12.50;;;11.90;99.90;;;;;;5055886;28;20467;-73
2021/05/21 04:15:39;;;;;;;13.40;12.80;;;11.90;99.90;;;;;;5055797;28;20455;-73
2021/05/21 04:18:07;;;;;;;13.83;12.57;;;11.90;99.90;;;;;;5060489;28;20463;-74
2021/05/21 04:20:34;;;;;;;13.47;12.77;;;11.90;99.90;;;;;;5055707;28;20486;-74
2021/05/21 04:23:02;;;;;;;13.97;12.60;;;11.90;99.90;;;;;;5053354;28;20476;-73
2021/05/21 04:25:28;;;;;;;13.43;12.53;;;11.90;99.90;;;;;;5056406;28;21088;-74
2021/05/21 04:27:55;;;;;;;13.33;12.30;;;11.90;99.90;;;;;;5050378;28;20510;-73
2021/05/21 04:30:24;;;;;;;13.70;13.00;;;12.00;99.90;;;;;;5057407;28;20468;-75
2021/05/21 04:32:50;;;;;;;14.40;13.70;;;12.00;99.90;;;;;;5052237;28;20510;-74
2021/05/21 04:35:17;;;;;;;13.60;12.90;;;12.10;99.90;;;;;;5057482;28;20950;-73
2021/05/21 04:37:43;;;;;;;13.80;13.20;;;12.10;99.90;;;;;;5049530;28;21343;-73
2021/05/21 04:40:10;;;;;;;13.73;13.03;;;12.20;99.90;;;;;;5055626;28;20498;-73
2021/05/21 04:42:37;;;;;;;14.40;13.60;;;12.20;99.90;;;;;;5052430;28;20794;-74
2021/05/21 04:45:04;;;;;;;14.07;13.20;;;12.30;99.90;;;;;;5056888;28;20456;-75
2021/05/21 04:47:31;;;;;;;14.20;13.40;;;12.20;99.90;;;;;;5060421;28;20466;-74
2021/05/21 04:49:57;;;;;;;17.10;15.60;;;12.30;99.90;;;;;;5051390;28;20544;-77
2021/05/21 04:52:24;;;;;;;13.90;13.10;;;12.40;99.90;;;;;;5051924;28;20464;-75
2021/05/21 04:54:51;;;;;;;14.57;13.53;;;12.40;99.90;;;;;;5058991;28;20498;-74
2021/05/21 04:57:17;;;;;;;14.50;13.50;;;12.40;99.90;;;;;;5054960;28;20464;-75
2021/05/21 04:59:44;;;;;;;13.77;13.07;;;12.50;99.90;;;;;;5059552;28;20470;-73
2021/05/21 05:02:10;;;;;;;15.50;14.50;;;12.50;99.90;;;;;;5055758;28;20525;-74
2021/05/21 05:04:37;;;;;;;16.00;14.77;;;12.50;99.90;;;;;;5055571;28;20467;-75
2021/05/21 05:07:04;;;;;;;14.73;13.90;;;12.60;99.90;;;;;;5057504;28;20954;-75
2021/05/21 05:09:30;;;;;;;14.37;13.47;;;12.70;99.90;;;;;;5057581;28;20490;-74
2021/05/21 05:11:58;;;;;;;15.80;14.80;;;12.70;99.90;;;;;;5050431;28;20463;-74
2021/05/21 05:14:24;;;;;;;14.50;13.53;;;12.90;99.90;;;;;;5052729;28;20516;-75
2021/05/21 05:16:50;;;;;;;15.93;14.67;;;13.00;99.90;;;;;;5057154;28;20841;-73
2021/05/21 05:19:17;;;;;;;14.47;13.77;;;13.10;99.90;;;;;;5056473;28;20464;-73
2021/05/21 05:21:45;;;;;;;15.07;14.27;;;13.20;99.90;;;;;;5052518;28;20498;-73
2021/05/21 05:24:13;;;;;;;15.07;14.10;;;13.30;99.90;;;;;;5060868;28;20512;-75
2021/05/21 05:26:40;;;;;;;14.47;13.77;;;13.40;99.90;;;;;;5058453;28;20501;-77
2021/05/21 05:29:07;;;;;;;14.80;14.10;;;13.60;99.90;;;;;;5050661;28;20491;-77
2021/05/21 05:31:34;;;;;;;15.17;14.10;;;13.60;99.90;;;;;;5053054;28;20814;-74
2021/05/21 05:34:00;;;;;;;15.20;14.20;;;13.70;99.90;;;;;;5056529;28;20467;-75
2021/05/21 05:36:26;;;;;;;15.40;14.60;;;13.80;99.90;;;;;;5058759;28;20462;-73
2021/05/21 05:38:53;;;;;;;14.50;13.63;;;13.70;99.90;;;;;;5055378;28;20903;-75
2021/05/21 05:41:20;;;;;;;15.50;14.70;;;13.80;99.90;;;;;;5053644;28;20483;-74
2021/05/21 05:43:46;;;;;;;15.37;14.57;;;13.80;99.90;;;;;;5054131;28;20455;-73
2021/05/21 05:46:12;;;;;;;15.27;14.37;;;13.80;99.90;;;;;;5055963;28;20513;-74
2021/05/21 05:48:39;;;;;;;15.13;14.07;;;13.80;99.90;;;;;;5046905;28;20484;-74
2021/05/21 05:51:06;;;;;;;15.33;14.30;;;13.80;99.90;;;;;;5058209;28;20489;-75
2021/05/21 05:53:34;;;;;;;15.47;14.37;;;13.80;99.90;;;;;;5053723;28;20802;-77
2021/05/21 05:56:02;;;;;;;15.77;14.60;;;13.70;99.90;;;;;;5051395;28;20459;-74
2021/05/21 05:58:29;;;;;;;15.20;14.10;;;13.80;99.90;;;;;;5054035;28;20854;-75
2021/05/21 06:00:55;;;;;;;16.27;15.17;;;13.80;99.90;;;;;;5053003;28;20470;-74
2021/05/21 06:03:21;;;;;;;15.30;14.30;;;13.70;99.90;;;;;;5053155;28;20467;-75
2021/05/21 06:05:48;;;;;;;15.83;14.93;;;13.70;99.90;;;;;;5058005;28;20463;-74
2021/05/21 06:08:14;;;;;;;16.97;15.47;;;13.70;99.90;;;;;;5052023;28;20494;-75
2021/05/21 06:10:41;;;;;;;15.97;14.77;;;13.80;99.90;;;;;;5052682;28;20493;-74
2021/05/21 06:13:09;;;;;;;15.93;14.80;;;14.00;99.90;;;;;;5052667;28;20478;-76
2021/05/21 06:15:36;;;;;;;15.37;14.37;;;14.00;99.90;;;;;;5051356;28;20470;-75
2021/05/21 06:18:03;;;;;;;16.47;15.43;;;14.10;99.90;;;;;;5059162;28;20865;-75
2021/05/21 06:20:31;;;;;;;16.10;14.87;;;14.10;99.90;;;;;;5049023;28;20465;-74
2021/05/21 06:22:58;;;;;;;15.70;14.60;;;14.10;99.90;;;;;;5049334;28;20467;-73
2021/05/21 06:25:38;;;;;;;16.20;14.97;;;14.10;99.90;;;;;;5055102;28;20459;-77
2021/05/21 06:28:04;;;;;;;16.50;15.20;;;13.90;99.90;;;;;;5057215;28;20540;-75
2021/05/21 06:30:32;;;;;;;15.20;14.10;;;14.00;99.90;;;;;;5051925;28;20838;-75
2021/05/21 06:32:58;;;;;;;16.43;15.33;;;14.00;99.90;;;;;;5048298;28;20458;-75
2021/05/21 06:35:26;;;;;;;16.13;14.97;;;14.00;99.90;;;;;;5055089;28;21029;-76
2021/05/21 06:37:53;;;;;;;16.23;15.13;;;14.20;99.90;;;;;;5052560;28;20898;-78
2021/05/21 06:40:19;;;;;;;16.97;14.83;;;14.20;99.90;;;;;;5047569;28;20487;-75
2021/05/21 06:42:46;;;;;;;16.37;14.83;;;14.30;99.90;;;;;;5057404;28;20459;-76
2021/05/21 06:45:13;;;;;;;17.93;16.30;;;14.40;99.90;;;;;;5055415;28;20845;-76
2021/05/21 06:47:41;;;;;;;16.47;14.90;;;14.20;99.90;;;;;;5054688;28;20492;-76
2021/05/21 06:50:08;;;;;;;16.47;15.20;;;14.10;99.90;;;;;;5052496;28;20487;-76
2021/05/21 06:52:35;;;;;;;16.60;14.93;;;14.10;99.90;;;;;;5050928;28;20692;-77
2021/05/21 06:55:01;;;;;;;15.83;14.83;;;14.10;99.90;;;;;;5051420;28;21024;-79
2021/05/21 06:57:27;;;;;;;15.17;14.03;;;13.90;99.90;;;;;;5047360;28;20468;-76
2021/05/21 06:59:54;;;;;;;14.97;14.00;;;13.90;99.90;;;;;;5050109;28;20973;-75
2021/05/21 07:02:20;;;;;;;15.70;14.70;;;13.90;99.90;;;;;;5050107;28;20466;-78
2021/05/21 07:04:48;;;;;;;16.77;15.30;;;13.90;99.90;;;;;;5050951;28;20949;-80
2021/05/21 07:07:14;;;;;;;16.43;14.90;;;14.00;99.90;;;;;;5049124;28;20955;-75
2021/05/21 07:09:41;;;;;;;16.10;15.00;;;14.40;99.90;;;;;;5053912;28;20494;-75
2021/05/21 07:12:08;;;;;;;17.87;15.47;;;14.40;99.90;;;;;;5050335;28;20459;-74
2021/05/21 07:14:34;;;;;;;16.80;15.37;;;14.30;99.90;;;;;;5046820;28;20506;-76
2021/05/21 07:17:01;;;;;;;15.63;14.37;;;14.30;99.90;;;;;;5054124;28;21177;-80
2021/05/21 07:19:27;;;;;;;16.80;15.53;;;14.40;99.90;;;;;;5053681;28;20463;-76
2021/05/21 07:21:54;;;;;;;18.70;16.00;;;14.70;99.90;;;;;;5054437;28;20883;-77
2021/05/21 07:24:21;;;;;;;17.43;15.87;;;15.10;99.90;;;;;;5056684;28;20459;-75
2021/05/21 07:26:47;;;;;;;17.57;15.87;;;15.30;99.90;;;;;;5053500;28;20463;-74
2021/05/21 07:29:14;;;;;;;18.50;16.70;;;15.30;99.90;;;;;;5054736;28;20479;-78
2021/05/21 07:31:41;;;;;;;17.50;16.10;;;15.30;99.90;;;;;;5058518;28;20814;-74
2021/05/21 07:34:07;;;;;;;16.57;15.37;;;15.30;99.90;;;;;;5054785;28;20471;-75
2021/05/21 07:36:35;;;;;;;17.13;15.70;;;15.20;99.90;;;;;;5051440;28;20455;-80
2021/05/21 07:39:05;;;;;;;17.57;16.20;;;15.10;99.90;;;;;;5047909;28;20498;-75
2021/05/21 07:41:31;;;;;;;19.13;17.73;;;14.80;99.90;;;;;;5052114;28;20486;-75
2021/05/21 07:43:58;;;;;;;17.67;16.40;;;14.30;99.90;;;;;;5051693;28;20536;-75
2021/05/21 07:46:26;;;;;;;18.10;16.50;;;14.00;99.90;;;;;;5053614;28;20459;-75
2021/05/21 07:48:53;;;;;;;17.90;16.30;;;14.20;99.90;;;;;;5055233;28;20575;-77
2021/05/21 07:51:21;;;;;;;17.67;16.10;;;14.50;99.90;;;;;;5056155;28;20602;-74
2021/05/21 07:53:47;;;;;;;17.33;15.90;;;14.90;99.90;;;;;;5053850;28;20463;-76
2021/05/21 07:56:15;;;;;;;17.20;15.90;;;15.10;99.90;;;;;;5057363;28;20459;-74
2021/05/21 07:58:41;;;;;;;18.00;16.23;;;15.10;99.90;;;;;;5055335;28;20464;-77
2021/05/21 08:01:08;;;;;;;17.53;15.93;;;14.70;99.90;;;;;;5051280;28;20474;-77
2021/05/21 08:03:34;;;;;;;18.60;16.87;;;14.30;99.90;;;;;;5054449;28;20463;-76
2021/05/21 08:06:01;;;;;;;18.37;16.87;;;13.90;99.90;;;;;;5051343;28;20895;-77
2021/05/21 08:08:31;;;;;;;19.33;17.43;;;13.70;99.90;;;;;;5055756;28;20482;-78
2021/05/21 08:11:00;;;;;;;18.83;16.80;;;14.10;99.90;;;;;;5055759;28;20478;-77
2021/05/21 08:13:27;;;;;;;18.70;16.90;;;14.30;99.90;;;;;;5055170;28;20960;-79
2021/05/21 08:15:54;;;;;;;18.07;16.73;;;14.40;99.90;;;;;;5055245;28;20977;-76
2021/05/21 08:18:21;;;;;;;18.67;17.00;;;14.90;99.90;;;;;;5052948;28;20986;-81
2021/05/21 08:20:49;;;;;;;19.23;17.80;;;15.50;99.90;;;;;;5059456;28;20628;-75
2021/05/21 08:23:15;;;;;;;17.40;16.30;;;16.20;99.90;;;;;;5057914;28;21141;-77
2021/05/21 08:25:42;;;;;;;17.67;16.10;;;16.30;99.90;;;;;;5054605;28;20884;-75
2021/05/21 08:28:08;;;;;;;18.47;16.87;;;16.30;99.90;;;;;;5055312;28;20495;-77
2021/05/21 08:30:36;;;;;;;19.33;17.30;;;16.30;99.90;;;;;;5058616;28;20490;-75
2021/05/21 08:33:03;;;;;;;18.83;16.87;;;15.80;99.90;;;;;;5050526;28;20470;-75
2021/05/21 08:35:30;;;;;;;19.83;16.63;;;15.20;99.90;;;;;;5054218;28;20463;-76
2021/05/21 08:37:57;;;;;;;18.53;16.90;;;15.10;99.90;;;;;;5055546;28;20471;-77
2021/05/21 08:40:26;;;;;;;17.37;16.30;;;15.40;99.90;;;;;;5057230;28;20576;-79
2021/05/21 08:42:59;;;;;;;16.77;15.47;;;16.10;99.90;;;;;;5049408;28;20475;-74
2021/05/21 08:45:28;;;;;;;18.73;16.83;;;16.30;99.90;;;;;;5057144;28;20460;-74
2021/05/21 08:47:56;;;;;;;18.83;17.00;;;16.40;99.90;;;;;;5055217;28;20871;-77
2021/05/21 08:50:23;;;;;;;18.10;16.60;;;16.80;99.90;;;;;;5057314;28;21028;-77
2021/05/21 08:52:49;;;;;;;17.20;16.20;;;17.40;99.90;;;;;;5054081;28;20471;-80
2021/05/21 08:55:16;;;;;;;17.60;16.00;;;17.70;98.80;;;;;;5057501;28;21012;-74
2021/05/21 08:57:43;;;;;;;18.50;16.90;;;17.40;99.20;;;;;;5050116;28;20966;-74
2021/05/21 09:00:11;;;;;;;17.60;16.17;;;18.00;99.90;;;;;;5051536;28;20831;-80
2021/05/21 09:02:39;;;;;;;16.43;15.33;;;18.00;98.90;;;;;;5052813;28;20475;-74
2021/05/21 09:05:08;;;;;;;18.13;16.40;;;17.60;98.60;;;;;;5056246;28;20451;-74
2021/05/21 09:07:36;;;;;;;17.47;16.33;;;17.00;98.50;;;;;;5050671;28;20466;-74
2021/05/21 09:10:07;;;;;;;17.00;15.40;;;16.90;99.00;;;;;;5050214;28;20541;-73
2021/05/21 09:12:39;;;;;;;18.37;16.50;;;16.50;98.70;;;;;;5051416;28;20879;-75
2021/05/21 09:15:14;;;;;;;17.37;16.17;;;16.50;97.30;;;;;;5054959;28;20467;-75
2021/05/21 09:17:54;;;;;;;19.40;17.60;;;16.50;97.70;;;;;;5047082;28;20516;-74
2021/05/21 09:20:27;;;;;;;18.03;16.73;;;16.60;98.50;;;;;;5054346;28;20459;-75
2021/05/21 09:23:05;;;;;;;23.43;15.80;;;16.90;98.10;;;;;;5055359;28;20854;-76
2021/05/21 09:25:37;;;;;;;16.60;15.50;;;17.10;97.60;;;;;;5058472;28;20936;-74
2021/05/21 09:28:03;;;;;;;16.17;14.97;;;16.40;97.70;;;;;;5056913;28;20872;-73
2021/05/21 09:30:30;;;;;;;16.93;15.53;;;16.50;98.80;;;;;;5055016;28;20451;-77
2021/05/21 09:33:02;;;;;;;18.83;15.60;;;16.20;99.90;;;;;;5048093;28;20482;-75
2021/05/21 09:35:30;;;;;;;17.67;16.30;;;16.90;99.90;;;;;;5051008;28;20458;-75
2021/05/21 09:37:56;;;;;;;17.50;16.00;;;17.40;99.20;;;;;;5047789;28;20475;-73
2021/05/21 09:40:24;;;;;;;17.83;16.10;;;17.90;98.30;;;;;;5055805;28;20935;-74
2021/05/21 09:42:52;;;;;;;18.03;16.23;;;18.10;98.40;;;;;;5054653;28;20476;-74
2021/05/21 09:45:31;;;;;;;17.57;15.97;;;17.60;98.20;;;;;;5051374;28;20860;-74
2021/05/21 09:48:01;;;;;;;17.90;16.30;;;17.50;97.20;;;;;;5048612;28;20547;-74
2021/05/21 09:50:37;;;;;;;17.90;16.40;;;18.10;96.90;;;;;;5048969;28;20599;-73
2021/05/21 09:53:07;;;;;;;17.70;16.50;;;17.40;96.60;;;;;;5048641;28;20774;-73
2021/05/21 09:55:36;;;;;;;16.53;15.30;;;16.80;96.00;;;;;;5048072;28;20478;-74
2021/05/21 09:58:03;;;;;;;18.17;16.77;;;16.80;97.70;;;;;;5032317;28;20779;-75
2021/05/21 10:00:29;;;;;;;17.57;16.13;;;17.70;97.30;;;;;;5059328;28;21005;-73
2021/05/21 10:02:56;;;;;;;21.00;15.67;;;18.30;96.10;;;;;;5059470;28;20874;-72
2021/05/21 10:05:23;;;;;;;16.80;15.40;;;17.60;94.90;;;;;;5049919;28;20512;-73
2021/05/21 10:07:52;;;;;;;18.30;16.60;;;16.90;96.10;;;;;;5053355;28;20468;-75
2021/05/21 10:10:22;;;;;;;20.07;18.40;;;16.80;96.50;;;;;;5053287;28;20542;-74
2021/05/21 10:12:48;;;;;;;18.40;16.80;;;17.00;98.10;;;;;;5055179;28;20489;-76
2021/05/21 10:15:15;;;;;;;17.97;16.57;;;17.90;95.80;;;;;;5056748;28;20985;-75
2021/05/21 10:17:43;;;;;;;16.23;15.20;;;18.20;95.20;;;;;;5049965;28;20576;-73
2021/05/21 10:20:13;;;;;;;17.03;15.70;;;17.80;94.90;;;;;;5053334;28;20467;-73
2021/05/21 10:22:41;;;;;;;18.53;16.93;;;17.80;95.60;;;;;;5052982;28;20463;-73
2021/05/21 10:25:14;;;;;;;18.03;16.60;;;17.60;95.50;;;;;;5051051;28;20466;-74
2021/05/21 10:27:44;;;;;;;19.07;16.63;;;18.10;96.10;;;;;;5057659;28;20464;-73
2021/05/21 10:30:12;;;;;;;17.07;15.87;;;17.70;97.80;;;;;;5049895;28;20545;-74
2021/05/21 10:32:39;;;;;;;18.53;16.73;;;17.50;95.80;;;;;;5054998;28;20520;-72
2021/05/21 10:35:18;;;;;;;17.00;15.80;;;17.20;96.30;;;;;;5055360;28;20458;-74
2021/05/21 10:37:45;;;;;;;16.93;15.50;;;17.90;93.90;;;;;;5056501;28;20878;-73
2021/05/21 10:40:22;;;;;;;16.60;15.20;;;18.20;93.20;;;;;;5055906;28;20989;-75
2021/05/21 10:42:50;;;;;;;15.13;14.03;;;18.40;92.40;;;;;;5057435;28;20531;-73
2021/05/21 10:45:17;;;;;;;15.47;14.40;;;17.60;93.10;;;;;;5052807;28;20466;-74
2021/05/21 10:47:46;;;;;;;16.10;14.70;;;17.10;93.30;;;;;;5053276;28;20463;-72
2021/05/21 10:50:17;;;;;;;16.80;15.57;;;16.90;93.70;;;;;;5053164;28;20499;-72
2021/05/21 10:53:05;;;;;;;17.53;16.10;;;17.00;95.20;;;;;;5053259;28;20459;-73
2021/05/21 10:55:48;;;;;;;16.67;15.53;;;18.00;95.30;;;;;;5061241;28;21104;-74
2021/05/21 10:58:26;;;;;;;16.13;15.03;;;19.00;94.30;;;;;;5053127;28;20521;-74
2021/05/21 11:01:28;;;;;;;16.03;14.70;;;19.90;92.60;;;;;;5053097;28;20481;-73
2021/05/21 11:04:11;;;;;;;15.87;14.77;;;20.00;91.10;;;;;;5060432;28;20520;-73
2021/05/21 11:06:47;;;;;;;16.20;15.10;;;19.20;91.40;;;;;;5054541;28;20833;-74
2021/05/21 11:09:15;;;;;;;18.80;15.70;;;19.50;90.40;;;;;;5055455;28;20831;-73
2021/05/21 11:11:47;;;;;;;15.87;14.73;;;19.50;89.90;;;;;;5052484;28;20468;-75
2021/05/21 11:14:36;;;;;;;16.90;15.30;;;19.90;89.80;;;;;;5053006;28;20466;-73
2021/05/21 11:17:23;;;;;;;15.83;14.73;;;19.20;90.90;;;;;;5048519;28;20551;-73
2021/05/21 11:19:51;;;;;;;15.60;14.70;;;19.60;91.20;;;;;;5053791;28;20463;-73
2021/05/21 11:22:28;;;;;;;16.43;15.13;;;19.50;91.10;;;;;;5047921;28;20459;-73
2021/05/21 11:24:56;;;;;;;15.30;14.30;;;18.50;92.30;;;;;;5054409;28;21024;-73
2021/05/21 11:27:24;;;;;;;16.93;15.30;;;18.70;92.10;;;;;;5049374;28;20458;-75
2021/05/21 11:29:52;;;;;;;16.40;15.30;;;18.50;91.40;;;;;;5054316;28;20522;-73
2021/05/21 11:32:20;;;;;;;17.13;15.27;;;18.50;91.90;;;;;;5053377;28;20463;-73
2021/05/21 11:34:47;;;;;;;16.20;15.07;;;18.50;93.50;;;;;;5049384;28;20459;-73
2021/05/21 11:37:15;;;;;;;15.80;14.70;;;19.40;91.70;;;;;;5058740;28;20497;-73
2021/05/21 11:39:43;;;;;;;16.70;15.50;;;19.80;90.80;;;;;;5055858;28;20509;-73
2021/05/21 11:42:10;;;;;;;17.00;15.30;;;20.40;90.20;;;;;;5058676;28;20482;-73
2021/05/21 11:44:37;;;;;;;18.03;15.73;;;20.10;89.20;;;;;;5056332;28;20938;-73
2021/05/21 11:47:06;;;;;;;17.87;16.13;;;18.90;91.40;;;;;;5058392;28;20835;-74
2021/05/21 11:49:34;;;;;;;16.40;15.13;;;19.10;92.10;;;;;;5048509;28;21178;-72
2021/05/21 11:52:03;;;;;;;18.03;16.27;;;19.00;92.10;;;;;;5047341;28;20934;-73
2021/05/21 11:54:31;;;;;;;16.90;15.40;;;18.30;93.10;;;;;;5055637;28;20973;-73
2021/05/21 11:56:59;;;;;;;16.70;15.23;;;19.00;92.60;;;;;;5059474;28;20455;-74
2021/05/21 11:59:26;;;;;;;17.40;15.90;;;19.80;93.70;;;;;;5052036;28;20510;-73
2021/05/21 12:01:55;;;;;;;16.77;15.43;;;20.10;92.50;;;;;;5056952;28;20457;-73
2021/05/21 12:04:23;;;;;;;15.77;14.67;;;20.10;90.90;;;;;;5053594;28;20459;-73
2021/05/21 12:06:51;;;;;;;16.87;15.67;;;20.50;91.20;;;;;;5050623;28;20468;-74
2021/05/21 12:09:19;;;;;;;16.60;15.20;;;20.30;87.80;;;;;;5061200;28;21021;-73
2021/05/21 12:11:46;;;;;;;15.90;14.80;;;20.10;86.00;;;;;;5053127;28;20491;-73
2021/05/21 12:14:14;;;;;;;16.77;15.43;;;20.20;88.40;;;;;;5056839;28;20467;-74
2021/05/21 12:16:43;;;;;;;15.57;14.57;;;19.90;87.60;;;;;;5050782;28;20536;-72
2021/05/21 12:19:12;;;;;;;16.40;15.07;;;20.20;88.50;;;;;;5049058;28;20618;-72
2021/05/21 12:21:40;;;;;;;15.60;14.27;;;20.70;85.00;;;;;;5055924;28;20467;-73
2021/05/21 12:24:08;;;;;;;15.40;14.10;;;20.90;83.10;;;;;;5055468;28;20469;-73
2021/05/21 12:26:37;;;;;;;15.80;14.87;;;19.90;82.70;;;;;;5050766;28;20537;-73
2021/05/21 12:29:06;;;;;;;15.37;14.27;;;19.60;87.10;;;;;;5050333;28;21246;-73
2021/05/21 12:31:35;;;;;;;15.60;14.40;;;20.10;86.20;;;;;;5050589;28;20455;-74